Time;durP1;ratioP1;P1;durP2;ratioP2;P2;SDS_P1;SDS_P2;PMS_P1;PMS_P2;Temp;Humidity;BMP_temperature;BMP_pressure;BME280_temperature;BME280_humidity;BME280_pressure;Samples;Min_cycle;Max_cycle;Signal;HPM_P1;HPM_P2
2022/10/31 00:02:03;;;;;;;8.88;3.38;;;11.00;99.90;;;;;;4996557;28;20038;-82
2022/10/31 00:04:29;;;;;;;5.28;2.67;;;11.00;99.90;;;;;;4996930;28;20038;-82
2022/10/31 00:06:55;;;;;;;6.90;3.35;;;11.00;99.90;;;;;;4980803;28;20041;-82
2022/10/31 00:09:21;;;;;;;6.07;2.60;;;11.00;99.90;;;;;;4996930;28;20144;-83
2022/10/31 00:11:46;;;;;;;6.90;3.38;;;10.90;99.90;;;;;;5012937;28;20042;-83
2022/10/31 00:14:12;;;;;;;4.53;2.83;;;11.10;99.90;;;;;;4980365;28;20049;-82
2022/10/31 00:16:38;;;;;;;6.93;3.33;;;10.90;99.90;;;;;;4996088;28;20057;-83
2022/10/31 00:19:06;;;;;;;8.10;3.40;;;10.90;99.90;;;;;;4996880;28;20132;-84
2022/10/31 00:21:33;;;;;;;8.32;4.05;;;11.00;99.90;;;;;;5012888;28;20059;-84
2022/10/31 00:23:59;;;;;;;7.18;3.40;;;11.00;99.90;;;;;;4996642;28;20037;-84
2022/10/31 00:26:27;;;;;;;9.30;4.40;;;11.30;99.90;;;;;;4996208;28;20141;-84
2022/10/31 00:28:53;;;;;;;7.72;3.97;;;11.00;99.90;;;;;;4991392;28;20046;-84
2022/10/31 00:31:19;;;;;;;6.82;3.33;;;11.00;99.90;;;;;;4996452;28;20049;-84
2022/10/31 00:33:45;;;;;;;5.28;3.22;;;11.00;99.90;;;;;;4995869;28;20042;-84
2022/10/31 00:36:13;;;;;;;7.30;3.50;;;10.90;99.90;;;;;;4980162;28;20053;-82
2022/10/31 00:38:40;;;;;;;7.40;3.22;;;10.90;99.90;;;;;;4996442;28;20042;-83
2022/10/31 00:41:05;;;;;;;5.55;2.80;;;10.90;99.90;;;;;;4996378;28;20068;-83
2022/10/31 00:43:31;;;;;;;6.53;3.13;;;10.80;99.90;;;;;;4996158;28;20037;-82
2022/10/31 00:45:57;;;;;;;4.85;2.97;;;10.80;99.90;;;;;;5012379;28;20046;-82
2022/10/31 00:48:22;;;;;;;6.28;3.38;;;10.80;99.90;;;;;;4980401;28;20042;-82
2022/10/31 00:50:48;;;;;;;8.20;4.40;;;10.80;99.90;;;;;;4996471;28;20070;-84
2022/10/31 00:53:14;;;;;;;7.63;3.38;;;10.80;99.90;;;;;;4996474;28;20053;-84
2022/10/31 00:55:39;;;;;;;6.90;2.90;;;10.80;99.90;;;;;;5012130;28;20492;-84
2022/10/31 00:58:05;;;;;;;5.13;3.17;;;10.80;99.90;;;;;;5012256;28;20049;-84
2022/10/31 01:00:30;;;;;;;7.55;3.67;;;10.80;99.90;;;;;;4995995;28;20085;-83
2022/10/31 01:02:56;;;;;;;8.73;3.83;;;10.80;99.90;;;;;;5012464;28;20045;-84
2022/10/31 01:05:22;;;;;;;8.00;3.67;;;10.70;99.90;;;;;;4995588;28;20037;-84
2022/10/31 01:07:47;;;;;;;6.57;3.42;;;10.80;99.90;;;;;;4996152;28;20099;-82
2022/10/31 01:10:14;;;;;;;7.43;3.50;;;10.80;99.90;;;;;;4995849;28;20030;-83
2022/10/31 01:12:42;;;;;;;8.73;3.33;;;10.80;99.90;;;;;;4995907;28;20104;-83
2022/10/31 01:15:10;;;;;;;8.27;3.75;;;10.80;99.90;;;;;;4995499;28;20049;-83
2022/10/31 01:17:35;;;;;;;10.95;4.50;;;10.80;99.90;;;;;;5012636;28;20046;-83
2022/10/31 01:20:03;;;;;;;8.30;4.57;;;10.90;99.90;;;;;;4996247;28;20072;-83
2022/10/31 01:22:28;;;;;;;7.70;4.00;;;10.90;99.90;;;;;;5011626;28;20049;-83
2022/10/31 01:24:54;;;;;;;7.10;3.38;;;10.90;99.90;;;;;;4992679;28;20410;-83
2022/10/31 01:27:20;;;;;;;12.32;4.60;;;10.90;99.90;;;;;;4993008;28;20042;-82
2022/10/31 01:29:45;;;;;;;6.97;3.88;;;10.90;99.90;;;;;;4995960;28;20050;-83
2022/10/31 01:32:11;;;;;;;6.78;3.28;;;11.00;99.90;;;;;;4996283;28;20127;-82
2022/10/31 01:34:37;;;;;;;8.40;3.75;;;10.90;99.90;;;;;;5012200;28;20492;-82
2022/10/31 01:37:02;;;;;;;5.95;3.10;;;10.90;99.90;;;;;;5011338;28;20080;-82
2022/10/31 01:39:28;;;;;;;7.70;3.70;;;10.80;99.90;;;;;;5012435;28;20058;-82
2022/10/31 01:41:54;;;;;;;9.48;4.45;;;10.70;99.90;;;;;;4995889;28;20046;-83
2022/10/31 01:44:20;;;;;;;8.55;3.65;;;10.70;99.90;;;;;;5011905;28;20037;-83
2022/10/31 01:46:51;;;;;;;6.68;3.50;;;10.70;99.90;;;;;;5011305;28;20040;-83
2022/10/31 01:49:35;;;;;;;8.45;4.70;;;10.60;99.90;;;;;;5011848;28;20071;-82
2022/10/31 01:52:14;;;;;;;7.88;3.78;;;10.60;99.90;;;;;;5011880;28;20096;-82
2022/10/31 01:54:50;;;;;;;7.65;3.65;;;10.60;99.90;;;;;;5012104;28;20046;-82
2022/10/31 01:57:20;;;;;;;7.00;3.20;;;10.60;99.90;;;;;;5011625;28;20080;-82
2022/10/31 01:59:51;;;;;;;7.38;3.47;;;10.50;99.90;;;;;;5011961;28;20068;-82
2022/10/31 02:02:19;;;;;;;9.48;4.45;;;10.60;99.90;;;;;;5011776;28;20507;-82
2022/10/31 02:04:46;;;;;;;7.38;4.07;;;10.50;99.90;;;;;;5011859;28;20061;-82
2022/10/31 02:07:17;;;;;;;11.02;3.88;;;10.60;99.90;;;;;;5011601;28;20134;-82
2022/10/31 02:09:46;;;;;;;8.13;4.35;;;10.50;99.90;;;;;;5011475;28;20077;-82
2022/10/31 02:12:13;;;;;;;8.75;4.30;;;10.60;99.90;;;;;;5013251;28;20042;-82
2022/10/31 02:14:39;;;;;;;9.63;5.10;;;10.60;99.90;;;;;;5015533;28;20081;-82
2022/10/31 02:17:05;;;;;;;10.50;4.68;;;10.60;99.90;;;;;;5015111;28;20087;-82
2022/10/31 02:19:41;;;;;;;10.05;4.68;;;10.60;99.90;;;;;;5014162;28;20042;-82
2022/10/31 02:22:28;;;;;;;9.00;4.68;;;10.70;99.90;;;;;;5039159;28;20077;-82
2022/10/31 02:24:54;;;;;;;;;;;10.60;99.90;;;;;;5014467;28;20091;-83
2022/10/31 02:27:50;;;;;;;6.83;3.73;;;10.50;99.90;;;;;;4998863;28;19917;-82
2022/10/31 02:30:20;;;;;;;8.40;3.45;;;10.40;99.90;;;;;;5018175;28;20057;-82
2022/10/31 02:33:02;;;;;;;11.45;4.38;;;10.40;99.90;;;;;;5002065;28;20136;-82
2022/10/31 02:35:47;;;;;;;7.78;3.92;;;10.40;99.90;;;;;;5018147;28;20053;-82
2022/10/31 02:38:32;;;;;;;6.43;2.95;;;10.30;99.90;;;;;;5018157;28;20495;-82
2022/10/31 02:41:12;;;;;;;7.88;4.00;;;10.30;99.90;;;;;;5018021;28;20057;-82
2022/10/31 02:43:59;;;;;;;10.20;4.68;;;10.20;99.90;;;;;;5001516;28;20037;-82
2022/10/31 02:46:33;;;;;;;8.43;4.00;;;;;;;;;;5001287;28;20037;-82
2022/10/31 02:49:06;;;;;;;8.57;3.58;;;10.10;99.90;;;;;;5001971;28;20128;-83
2022/10/31 02:51:32;;;;;;;9.23;4.15;;;10.10;99.90;;;;;;5017977;28;20068;-84
2022/10/31 02:53:58;;;;;;;7.38;3.92;;;10.10;99.90;;;;;;5017851;28;20037;-83
2022/10/31 02:56:24;;;;;;;7.60;3.90;;;10.00;99.90;;;;;;5001623;28;20042;-83
2022/10/31 02:58:54;;;;;;;7.88;3.55;;;10.00;99.90;;;;;;4985183;28;20369;-84
2022/10/31 03:01:46;;;;;;;7.05;3.78;;;10.00;99.90;;;;;;5017562;28;20033;-84
2022/10/31 03:04:30;;;;;;;9.05;3.83;;;10.00;99.90;;;;;;4997680;28;20068;-82
2022/10/31 03:07:19;;;;;;;15.75;4.40;;;9.90;99.90;;;;;;5017720;28;20080;-82
2022/10/31 03:09:50;;;;;;;7.00;3.60;;;9.90;99.90;;;;;;5017465;28;20052;-82
2022/10/31 03:12:22;;;;;;;6.53;4.22;;;9.90;99.90;;;;;;5017868;28;20104;-82
2022/10/31 03:15:28;;;;;;;7.70;3.90;;;10.00;99.90;;;;;;5017230;28;20483;-82
2022/10/31 03:18:03;;;;;;;12.88;4.80;;;9.80;99.90;;;;;;4997505;28;20077;-82
2022/10/31 03:20:44;;;;;;;8.77;3.85;;;9.80;99.90;;;;;;4982133;28;20042;-83
2022/10/31 03:23:14;;;;;;;5.80;3.05;;;9.80;99.90;;;;;;5001899;28;20138;-83
2022/10/31 03:25:42;;;;;;;9.02;3.75;;;9.80;99.90;;;;;;5017651;28;20077;-83
2022/10/31 03:28:11;;;;;;;8.23;3.72;;;9.80;99.90;;;;;;4997201;28;20116;-84
2022/10/31 03:30:41;;;;;;;8.13;3.28;;;9.80;99.90;;;;;;5014083;28;20104;-84
2022/10/31 03:33:17;;;;;;;6.78;3.83;;;9.70;99.90;;;;;;5013814;28;20037;-84
2022/10/31 03:35:47;;;;;;;6.55;3.13;;;9.70;99.90;;;;;;4997490;28;20042;-84
2022/10/31 03:38:14;;;;;;;6.75;3.03;;;9.70;99.90;;;;;;5014381;28;20108;-84
2022/10/31 03:40:43;;;;;;;7.30;2.95;;;9.70;99.90;;;;;;5013880;28;20049;-84
2022/10/31 03:43:15;;;;;;;6.15;3.15;;;9.70;99.90;;;;;;5037976;23;20052;-82
2022/10/31 03:45:47;;;;;;;7.13;3.30;;;9.70;99.90;;;;;;5055442;28;20041;-82
2022/10/31 03:48:19;;;;;;;4.85;2.95;;;9.60;99.90;;;;;;5036979;28;20041;-82
2022/10/31 03:50:59;;;;;;;5.40;3.00;;;9.60;99.90;;;;;;5053024;28;20040;-83
2022/10/31 03:53:27;;;;;;;5.65;2.95;;;9.60;99.90;;;;;;5036533;28;20475;-82
2022/10/31 03:56:01;;;;;;;8.30;3.40;;;9.50;99.90;;;;;;5070183;28;20128;-82
2022/10/31 03:58:39;;;;;;;4.35;2.47;;;9.90;99.90;;;;;;5052961;28;20106;-82
2022/10/31 04:01:09;;;;;;;6.20;3.10;;;9.50;99.90;;;;;;5053759;28;20045;-82
2022/10/31 04:03:37;;;;;;;7.68;4.43;;;9.60;99.90;;;;;;5054688;28;20049;-83
2022/10/31 04:06:09;;;;;;;6.38;3.53;;;9.90;99.90;;;;;;5036674;28;20135;-83
2022/10/31 04:08:43;;;;;;;5.20;3.03;;;9.50;99.90;;;;;;5054401;28;20086;-83
2022/10/31 04:11:11;;;;;;;7.40;3.33;;;10.40;99.90;;;;;;5052464;28;20056;-83
2022/10/31 04:13:39;;;;;;;7.20;3.55;;;9.60;99.90;;;;;;5052985;28;20044;-83
2022/10/31 04:16:06;;;;;;;5.25;2.92;;;9.50;99.90;;;;;;5052629;28;20073;-83
2022/10/31 04:18:32;;;;;;;5.10;2.70;;;9.40;99.90;;;;;;5052707;28;20090;-83
2022/10/31 04:21:04;;;;;;;7.28;3.20;;;9.40;99.90;;;;;;5052726;28;20032;-83
2022/10/31 04:23:30;;;;;;;11.35;4.43;;;9.50;99.90;;;;;;5052136;28;20052;-83
2022/10/31 04:25:56;;;;;;;6.00;3.20;;;9.40;99.90;;;;;;5036127;28;20041;-83
2022/10/31 04:28:21;;;;;;;7.97;3.33;;;9.80;99.90;;;;;;5036282;28;20037;-83
2022/10/31 04:30:47;;;;;;;6.03;2.70;;;9.40;99.90;;;;;;5035740;28;20063;-82
2022/10/31 04:33:13;;;;;;;6.18;3.28;;;9.40;99.90;;;;;;5052203;28;20516;-83
2022/10/31 04:35:39;;;;;;;8.18;3.47;;;9.40;99.90;;;;;;5034971;28;20052;-83
2022/10/31 04:38:05;;;;;;;8.45;3.70;;;9.30;99.90;;;;;;5052435;28;20123;-83
2022/10/31 04:40:31;;;;;;;7.43;3.92;;;9.40;99.90;;;;;;5052496;28;20066;-83
2022/10/31 04:42:56;;;;;;;8.15;3.92;;;9.40;99.90;;;;;;5035281;28;20049;-83
2022/10/31 04:45:22;;;;;;;6.13;3.53;;;9.40;99.90;;;;;;5035791;28;20111;-82
2022/10/31 04:47:48;;;;;;;5.70;3.17;;;9.40;99.90;;;;;;5085820;28;20360;-83
2022/10/31 04:50:14;;;;;;;6.43;3.15;;;9.30;99.90;;;;;;5043578;28;20476;-83
2022/10/31 04:52:40;;;;;;;7.25;3.85;;;9.30;99.90;;;;;;5061440;28;20073;-83
2022/10/31 04:55:07;;;;;;;6.38;2.90;;;9.30;99.90;;;;;;5048935;28;20484;-83
2022/10/31 04:57:39;;;;;;;4.78;2.63;;;9.30;99.90;;;;;;5035389;28;20399;-82
2022/10/31 05:00:05;;;;;;;6.40;3.20;;;9.20;99.90;;;;;;5052759;28;20040;-83
2022/10/31 05:02:31;;;;;;;6.70;3.13;;;9.10;99.90;;;;;;5019294;28;20041;-83
2022/10/31 05:04:57;;;;;;;6.85;3.75;;;9.10;99.90;;;;;;5052401;28;20036;-84
2022/10/31 05:07:22;;;;;;;7.63;4.40;;;9.10;99.90;;;;;;5035502;28;20045;-83
2022/10/31 05:09:48;;;;;;;7.30;3.58;;;9.10;99.90;;;;;;5003292;28;20048;-84
2022/10/31 05:12:14;;;;;;;13.07;6.38;;;9.10;99.90;;;;;;5003362;28;20036;-84
2022/10/31 05:14:40;;;;;;;6.70;3.78;;;9.20;99.90;;;;;;5019174;28;20615;-84
2022/10/31 05:17:05;;;;;;;6.20;3.80;;;9.20;99.90;;;;;;5050123;28;20037;-83
2022/10/31 05:19:31;;;;;;;6.30;3.65;;;9.20;99.90;;;;;;5052505;28;20134;-83
2022/10/31 05:21:57;;;;;;;11.07;4.72;;;9.20;99.90;;;;;;5019126;28;20052;-83
2022/10/31 05:24:22;;;;;;;7.50;3.42;;;9.30;99.90;;;;;;4999205;28;20038;-83
2022/10/31 05:26:49;;;;;;;7.55;4.32;;;9.20;99.90;;;;;;5015596;28;20384;-83
2022/10/31 05:29:15;;;;;;;8.07;3.78;;;9.20;99.90;;;;;;5018303;28;20121;-84
2022/10/31 05:31:40;;;;;;;5.13;3.08;;;9.20;99.90;;;;;;5002727;28;20076;-83
2022/10/31 05:34:06;;;;;;;5.60;3.30;;;9.10;99.90;;;;;;5048429;28;20452;-82
2022/10/31 05:36:32;;;;;;;5.50;3.47;;;9.10;99.90;;;;;;5051635;28;20037;-82
2022/10/31 05:38:57;;;;;;;6.25;3.53;;;9.00;99.90;;;;;;5068206;28;20117;-82
2022/10/31 05:41:23;;;;;;;7.43;3.50;;;9.10;99.90;;;;;;5068855;28;20041;-82
2022/10/31 05:43:49;;;;;;;8.52;3.90;;;9.10;99.90;;;;;;5035142;28;20407;-82
2022/10/31 05:46:15;;;;;;;4.97;2.70;;;9.30;99.90;;;;;;5052255;28;20118;-82
2022/10/31 05:48:40;;;;;;;7.65;3.97;;;9.00;99.90;;;;;;5055914;28;20064;-82
2022/10/31 05:51:06;;;;;;;6.03;3.17;;;9.10;99.90;;;;;;5055457;28;20041;-82
2022/10/31 05:53:32;;;;;;;7.40;3.30;;;9.10;99.90;;;;;;5055612;28;20041;-82
2022/10/31 05:55:58;;;;;;;5.35;2.75;;;9.00;99.90;;;;;;5055345;28;20072;-82
2022/10/31 05:58:23;;;;;;;8.75;4.03;;;9.00;99.90;;;;;;5038989;28;20127;-82
2022/10/31 06:00:49;;;;;;;6.53;3.00;;;8.90;99.90;;;;;;5053695;28;20052;-82
2022/10/31 06:03:15;;;;;;;7.72;2.97;;;9.00;99.90;;;;;;5055344;28;20041;-82
2022/10/31 06:05:40;;;;;;;5.40;2.95;;;9.00;99.90;;;;;;5039430;28;20036;-82
2022/10/31 06:08:09;;;;;;;6.72;3.58;;;9.00;99.90;;;;;;5055951;28;20119;-85
2022/10/31 06:10:35;;;;;;;5.53;2.75;;;9.00;99.90;;;;;;5054254;28;20048;-83
2022/10/31 06:13:00;;;;;;;7.05;3.45;;;9.00;99.90;;;;;;5022603;28;20049;-83
2022/10/31 06:15:26;;;;;;;5.70;3.03;;;8.30;99.90;;;;;;5055343;28;20469;-82
2022/10/31 06:18:02;;;;;;;6.28;3.50;;;8.90;99.90;;;;;;5055179;28;20041;-83
2022/10/31 06:20:28;;;;;;;5.68;2.97;;;8.90;99.90;;;;;;5038064;28;20044;-83
2022/10/31 06:22:54;;;;;;;6.97;3.78;;;8.90;99.90;;;;;;5087328;28;20049;-83
2022/10/31 06:25:20;;;;;;;6.70;3.38;;;8.90;99.90;;;;;;5050027;28;20045;-84
2022/10/31 06:27:45;;;;;;;7.40;3.70;;;8.90;99.90;;;;;;5045980;28;20121;-84
2022/10/31 06:30:11;;;;;;;8.57;4.63;;;8.90;99.90;;;;;;5050770;28;20030;-83
2022/10/31 06:32:37;;;;;;;11.73;4.43;;;8.90;99.90;;;;;;5037450;28;20486;-83
2022/10/31 06:35:03;;;;;;;9.73;5.30;;;8.90;99.90;;;;;;5054321;28;20196;-83
2022/10/31 06:37:29;;;;;;;8.73;5.38;;;8.90;99.90;;;;;;5035892;28;20045;-83
2022/10/31 06:39:55;;;;;;;8.45;4.75;;;8.90;99.90;;;;;;5065350;28;20041;-83
2022/10/31 06:42:20;;;;;;;8.23;4.10;;;8.90;99.90;;;;;;5033861;28;20037;-83
2022/10/31 06:44:46;;;;;;;10.63;5.20;;;9.60;99.90;;;;;;5043631;28;20499;-83
2022/10/31 06:47:12;;;;;;;12.18;4.72;;;8.90;99.90;;;;;;5077619;28;20485;-83
2022/10/31 06:49:37;;;;;;;12.50;5.32;;;8.90;99.90;;;;;;5036786;28;20403;-83
2022/10/31 06:52:04;;;;;;;11.27;4.85;;;8.90;99.90;;;;;;5048925;28;20040;-83
2022/10/31 06:54:30;;;;;;;11.05;4.88;;;8.90;99.90;;;;;;5049389;28;20045;-83
2022/10/31 06:56:56;;;;;;;12.30;5.38;;;8.90;99.90;;;;;;5037421;28;20045;-83
2022/10/31 06:59:23;;;;;;;11.57;5.63;;;8.90;99.90;;;;;;5079456;28;20122;-83
2022/10/31 07:01:49;;;;;;;10.38;5.50;;;9.00;99.90;;;;;;5021421;28;20041;-83
2022/10/31 07:04:15;;;;;;;8.40;4.95;;;9.10;99.90;;;;;;5037539;28;20044;-83
2022/10/31 07:06:41;;;;;;;8.55;4.88;;;9.10;99.90;;;;;;5050119;28;20037;-83
2022/10/31 07:09:06;;;;;;;8.20;4.68;;;9.10;99.90;;;;;;5053891;28;20478;-83
2022/10/31 07:11:32;;;;;;;7.50;4.53;;;9.10;99.90;;;;;;5054291;28;20040;-84
2022/10/31 07:13:58;;;;;;;8.85;5.13;;;9.20;99.90;;;;;;5071599;28;20041;-82
2022/10/31 07:16:24;;;;;;;7.40;4.47;;;9.20;99.90;;;;;;5049706;28;20037;-83
2022/10/31 07:18:50;;;;;;;8.70;4.53;;;9.30;99.90;;;;;;5046177;28;20064;-82
2022/10/31 07:21:16;;;;;;;11.68;5.45;;;9.40;99.90;;;;;;5050797;28;20435;-82
2022/10/31 07:23:41;;;;;;;7.97;4.68;;;9.50;99.90;;;;;;5037071;28;20067;-82
2022/10/31 07:26:09;;;;;;;8.73;5.32;;;9.70;99.90;;;;;;5050829;28;20129;-83
2022/10/31 07:28:34;;;;;;;14.60;6.85;;;10.00;99.90;;;;;;5042575;28;20464;-83
2022/10/31 07:31:00;;;;;;;11.00;5.78;;;10.50;99.90;;;;;;5048722;28;20501;-84
2022/10/31 07:33:26;;;;;;;11.68;6.63;;;11.10;99.90;;;;;;5046303;28;20040;-84
2022/10/31 07:35:52;;;;;;;11.95;6.38;;;11.80;99.90;;;;;;5051670;28;20041;-85
2022/10/31 07:38:18;;;;;;;12.75;6.32;;;12.40;99.90;;;;;;5060296;28;20080;-85
2022/10/31 07:40:49;;;;;;;11.73;6.00;;;12.60;99.90;;;;;;5044457;28;20452;-85
2022/10/31 07:43:14;;;;;;;10.48;5.72;;;13.20;99.90;;;;;;5043570;28;20104;-84
2022/10/31 07:45:40;;;;;;;10.00;5.55;;;14.00;99.90;;;;;;5068352;28;20044;-84
2022/10/31 07:48:06;;;;;;;8.82;5.10;;;14.20;99.90;;;;;;5053294;28;20033;-83
2022/10/31 07:50:35;;;;;;;9.95;5.95;;;14.90;99.90;;;;;;5069260;28;20044;-83
2022/10/31 07:53:06;;;;;;;7.13;4.25;;;16.10;99.90;;;;;;5039790;28;20041;-83
2022/10/31 07:55:32;;;;;;;8.82;4.10;;;16.10;99.90;;;;;;5053561;28;20040;-83
2022/10/31 07:58:03;;;;;;;7.63;4.72;;;16.70;99.90;;;;;;5053921;28;20040;-83
2022/10/31 08:00:30;;;;;;;7.43;4.07;;;17.00;99.90;;;;;;5038021;28;20080;-83
2022/10/31 08:03:10;;;;;;;10.82;4.45;;;17.20;99.90;;;;;;5037281;28;20120;-83
2022/10/31 08:05:36;;;;;;;9.63;4.57;;;17.20;99.90;;;;;;5070150;28;20040;-84
2022/10/31 08:08:04;;;;;;;8.52;4.75;;;17.00;99.90;;;;;;5036852;28;20036;-83
2022/10/31 08:10:32;;;;;;;7.90;4.18;;;16.80;99.90;;;;;;5052444;28;20545;-83
2022/10/31 08:13:00;;;;;;;6.55;3.95;;;16.50;99.90;;;;;;5070294;28;20479;-83
2022/10/31 08:15:26;;;;;;;9.45;4.40;;;16.20;99.90;;;;;;5053493;28;20041;-83
2022/10/31 08:17:51;;;;;;;5.85;3.35;;;16.00;99.90;;;;;;5069689;28;20505;-83
2022/10/31 08:20:18;;;;;;;7.78;4.18;;;16.00;99.90;;;;;;5052847;28;20120;-83
2022/10/31 08:22:51;;;;;;;7.47;3.65;;;16.80;99.90;;;;;;5052323;28;20132;-84
2022/10/31 08:25:17;;;;;;;8.02;3.70;;;16.90;99.90;;;;;;5035472;28;20111;-83
2022/10/31 08:27:47;;;;;;;6.40;3.38;;;17.30;99.90;;;;;;5034516;28;20120;-83
2022/10/31 08:30:13;;;;;;;7.47;4.15;;;17.50;99.90;;;;;;5052405;28;20041;-83
2022/10/31 08:32:39;;;;;;;5.50;3.28;;;17.60;99.90;;;;;;5050078;28;20052;-83
2022/10/31 08:35:05;;;;;;;7.68;3.75;;;;;;;;;;5051911;28;20041;-83
2022/10/31 08:37:31;;;;;;;6.35;3.50;;;18.10;99.90;;;;;;5052883;28;20037;-83
2022/10/31 08:39:56;;;;;;;9.23;3.88;;;18.60;99.90;;;;;;5036072;28;20041;-83
2022/10/31 08:42:22;;;;;;;5.80;3.95;;;18.70;99.90;;;;;;5052235;28;20040;-83
2022/10/31 08:44:48;;;;;;;5.82;3.53;;;18.90;99.90;;;;;;5052304;28;20056;-83
2022/10/31 08:47:13;;;;;;;6.95;4.20;;;19.30;99.90;;;;;;5050063;28;20411;-83
2022/10/31 08:49:39;;;;;;;7.95;3.97;;;19.80;99.90;;;;;;5052501;28;20040;-83
2022/10/31 08:52:05;;;;;;;6.50;3.65;;;20.30;99.90;;;;;;5036006;28;20072;-83
2022/10/31 08:54:30;;;;;;;9.00;3.85;;;20.60;99.90;;;;;;5035905;28;20502;-83
2022/10/31 08:56:56;;;;;;;7.35;3.72;;;20.80;99.90;;;;;;5035702;28;20041;-82
2022/10/31 08:59:22;;;;;;;7.13;4.28;;;20.60;99.90;;;;;;5052179;28;20048;-83
2022/10/31 09:01:48;;;;;;;8.98;4.43;;;20.30;99.90;;;;;;5035820;28;20045;-83
2022/10/31 09:04:13;;;;;;;6.93;3.70;;;20.70;99.90;;;;;;5066456;28;20095;-83
2022/10/31 09:06:39;;;;;;;9.20;3.60;;;21.30;99.90;;;;;;5069380;28;20120;-83
2022/10/31 09:09:05;;;;;;;10.90;5.78;;;21.70;99.90;;;;;;5051630;28;20082;-82
2022/10/31 09:11:31;;;;;;;5.75;3.45;;;22.00;99.90;;;;;;5051745;28;20063;-84
2022/10/31 09:13:57;;;;;;;5.60;3.70;;;22.50;99.90;;;;;;5052384;28;20041;-84
2022/10/31 09:16:22;;;;;;;8.75;3.80;;;22.20;99.90;;;;;;5042934;28;20044;-84
2022/10/31 09:18:48;;;;;;;6.13;3.63;;;22.00;99.90;;;;;;5036498;28;20043;-84
2022/10/31 09:21:14;;;;;;;5.30;2.97;;;;;;;;;;5054422;28;20483;-84
2022/10/31 09:23:40;;;;;;;5.97;3.58;;;22.60;99.90;;;;;;5055992;28;20045;-84
2022/10/31 09:26:06;;;;;;;5.85;3.40;;;22.40;99.90;;;;;;5048580;28;20083;-84
2022/10/31 09:28:32;;;;;;;7.00;4.18;;;21.90;99.90;;;;;;5055541;28;20041;-84
2022/10/31 09:30:58;;;;;;;5.97;3.60;;;20.70;99.90;;;;;;5023967;28;20506;-84
2022/10/31 09:33:23;;;;;;;11.85;3.75;;;20.10;99.90;;;;;;5040557;28;20055;-84
2022/10/31 09:35:49;;;;;;;9.02;3.63;;;19.10;99.90;;;;;;5039758;28;20041;-84
2022/10/31 09:38:18;;;;;;;6.55;3.28;;;;;;;;;;5056421;28;20047;-84
2022/10/31 09:41:03;;;;;;;8.20;3.65;;;;;;;;;;5055569;28;20052;-84
2022/10/31 09:43:43;;;;;;;6.75;3.53;;;;;;;;;;5055485;28;20075;-83
2022/10/31 09:46:16;;;;;;;7.25;3.13;;;;;;;;;;5055596;28;20483;-83
2022/10/31 09:48:42;;;;;;;6.60;3.17;;;;;;;;;;5055749;28;20083;-83
2022/10/31 09:51:11;;;;;;;5.90;3.10;;;;;;;;;;5051950;28;20045;-83
2022/10/31 09:53:43;;;;;;;6.07;3.28;;;;;;;;;;5052234;28;20045;-83
2022/10/31 09:56:13;;;;;;;4.88;3.13;;;22.10;99.90;;;;;;5035740;28;20388;-83
2022/10/31 09:58:48;;;;;;;5.60;2.80;;;21.90;99.90;;;;;;5035514;28;20041;-83
2022/10/31 10:01:45;;;;;;;6.15;3.45;;;21.50;99.90;;;;;;5052514;28;20110;-83
2022/10/31 10:04:30;;;;;;;5.93;3.30;;;;;;;;;;5035669;28;20135;-83
2022/10/31 10:06:56;;;;;;;7.53;3.13;;;;;;;;;;5055806;28;20131;-83
2022/10/31 10:09:25;;;;;;;7.10;3.60;;;;;;;;;;5055276;28;20044;-83
2022/10/31 10:12:06;;;;;;;5.95;3.13;;;;;;;;;;5054985;28;20079;-83
2022/10/31 10:14:40;;;;;;;5.07;3.22;;;;;;;;;;5055247;28;20033;-83
2022/10/31 10:17:06;;;;;;;5.38;3.15;;;22.90;99.90;;;;;;5055073;28;20104;-83
2022/10/31 10:19:45;;;;;;;9.10;3.60;;;22.90;99.90;;;;;;5055077;28;20047;-83
2022/10/31 10:22:42;;;;;;;6.28;3.58;;;23.50;99.90;;;;;;5054769;28;20059;-84
2022/10/31 10:25:16;;;;;;;7.97;3.80;;;24.70;98.00;;;;;;5038389;28;20037;-84
2022/10/31 10:27:50;;;;;;;9.55;3.92;;;24.80;97.40;;;;;;5054901;28;20041;-84
2022/10/31 10:30:20;;;;;;;6.47;3.45;;;24.20;98.30;;;;;;5055139;28;20047;-84
2022/10/31 10:33:04;;;;;;;4.95;3.10;;;24.30;98.90;;;;;;5036908;28;20045;-84
2022/10/31 10:35:33;;;;;;;7.72;3.70;;;;;;;;;;5038329;28;20057;-85
2022/10/31 10:38:10;;;;;;;6.40;3.33;;;22.50;98.80;;;;;;5054673;28;20048;-84
2022/10/31 10:40:37;;;;;;;6.38;3.25;;;22.30;99.70;;;;;;5054544;28;20505;-84
2022/10/31 10:43:41;;;;;;;6.78;3.35;;;21.60;99.90;;;;;;5087552;28;20088;-84
2022/10/31 10:49:28;;;;;;;9.60;4.63;;;;;;;;;;5054756;28;20059;-83
2022/10/31 10:51:54;;;;;;;7.93;3.42;;;;;;;;;;5054238;28;20033;-83
2022/10/31 10:54:40;;;;;;;7.10;3.63;;;;;;;;;;5054421;28;20033;-83
2022/10/31 10:57:09;;;;;;;8.10;3.53;;;;;;;;;;5054573;28;20490;-83
2022/10/31 10:59:35;;;;;;;7.20;3.42;;;;;;;;;;5054599;28;20041;-84
2022/10/31 11:02:01;;;;;;;7.15;3.40;;;;;;;;;;5054384;28;20041;-83
2022/10/31 11:04:32;;;;;;;5.22;3.03;;;;;;;;;;5044208;28;20029;-83
2022/10/31 11:07:09;;;;;;;6.97;3.22;;;;;;;;;;5054137;28;20037;-86
2022/10/31 11:09:36;;;;;;;6.00;2.72;;;;;;;;;;5054111;28;20068;-85
2022/10/31 11:12:11;;;;;;;8.45;3.53;;;;;;;;;;5037515;28;20556;-85
2022/10/31 11:15:07;;;;;;;9.93;4.00;;;22.30;99.90;;;;;;5054054;28;20033;-85
2022/10/31 11:17:38;;;;;;;;;;;21.40;99.90;;;;;;5087117;28;20053;-85
2022/10/31 11:20:13;;;;;;;7.53;3.50;;;20.50;99.90;;;;;;5053933;28;20379;-85
2022/10/31 11:22:40;;;;;;;8.40;3.55;;;20.20;99.90;;;;;;5053784;28;20041;-85
2022/10/31 11:25:25;;;;;;;7.72;3.85;;;19.20;99.90;;;;;;5067012;28;20045;-84
2022/10/31 11:28:09;;;;;;;6.63;3.33;;;18.80;99.90;;;;;;5052124;28;20043;-83
2022/10/31 11:30:55;;;;;;;9.45;3.67;;;18.60;99.90;;;;;;5070372;28;20037;-83
2022/10/31 11:33:23;;;;;;;11.30;5.28;;;18.10;99.90;;;;;;5033887;28;20483;-83
2022/10/31 11:35:49;;;;;;;8.27;3.75;;;17.80;99.90;;;;;;5031186;28;20495;-83
2022/10/31 11:38:21;;;;;;;9.68;4.03;;;17.60;99.90;;;;;;5053687;28;20091;-83
2022/10/31 11:41:17;;;;;;;13.57;5.68;;;17.50;99.90;;;;;;5053506;28;20457;-85
2022/10/31 11:43:56;;;;;;;9.80;4.35;;;17.40;99.90;;;;;;5035958;28;20065;-85
2022/10/31 11:46:29;;;;;;;12.30;5.60;;;17.30;99.90;;;;;;5036367;28;20052;-85
2022/10/31 11:48:55;;;;;;;12.10;5.40;;;17.20;99.90;;;;;;5053386;28;20095;-85
2022/10/31 11:51:26;;;;;;;11.68;4.82;;;17.20;99.90;;;;;;5069516;28;20041;-85
2022/10/31 11:53:54;;;;;;;9.48;3.90;;;17.20;99.90;;;;;;5053514;28;20033;-85
2022/10/31 11:56:20;;;;;;;8.68;4.75;;;17.20;99.90;;;;;;5036506;28;20498;-85
2022/10/31 11:59:41;;;;;;;10.20;4.55;;;17.20;99.90;;;;;;5053082;28;20111;-83
2022/10/31 12:02:19;;;;;;;8.82;4.15;;;17.20;99.90;;;;;;5036761;28;20494;-83
2022/10/31 12:04:50;;;;;;;7.93;4.05;;;17.20;99.90;;;;;;5036782;28;20033;-83
2022/10/31 12:07:15;;;;;;;8.60;4.20;;;17.10;99.90;;;;;;5052941;28;20064;-83
2022/10/31 12:09:41;;;;;;;9.98;4.55;;;17.20;99.90;;;;;;5036312;28;20483;-83
2022/10/31 12:12:34;;;;;;;7.57;3.25;;;17.20;99.90;;;;;;5052857;28;20041;-83
2022/10/31 12:15:06;;;;;;;10.52;4.85;;;17.00;99.90;;;;;;5052419;28;20036;-85
2022/10/31 12:17:37;;;;;;;11.25;3.97;;;17.10;99.90;;;;;;5049224;28;20072;-85
2022/10/31 12:20:21;;;;;;;10.90;4.13;;;17.00;99.90;;;;;;5052744;28;20041;-85
2022/10/31 12:23:25;;;;;;;9.07;3.83;;;16.90;99.90;;;;;;5067914;28;20047;-84
2022/10/31 12:25:56;;;;;;;6.95;3.30;;;16.90;99.90;;;;;;5059769;28;20153;-83
2022/10/31 12:28:59;;;;;;;8.27;3.50;;;16.90;99.90;;;;;;5038079;28;20395;-83
2022/10/31 12:31:39;;;;;;;5.82;2.80;;;16.80;99.90;;;;;;5036047;28;20354;-83
2022/10/31 12:34:20;;;;;;;5.55;2.60;;;16.70;99.90;;;;;;5036298;28;20045;-84
2022/10/31 12:37:27;;;;;;;5.60;2.60;;;16.70;99.90;;;;;;5052167;28;20041;-83
2022/10/31 12:40:20;;;;;;;8.00;2.90;;;16.70;99.90;;;;;;5031232;28;20043;-84
2022/10/31 12:42:58;;;;;;;5.82;2.72;;;16.70;99.90;;;;;;5052445;28;20053;-84
2022/10/31 12:45:57;;;;;;;7.05;2.63;;;16.50;99.90;;;;;;5036108;28;20045;-83
2022/10/31 12:48:41;;;;;;;5.68;2.83;;;16.50;99.90;;;;;;5052318;28;20457;-83
2022/10/31 12:51:52;;;;;;;6.70;2.65;;;16.50;99.90;;;;;;5036070;28;20044;-83
2022/10/31 12:54:17;;;;;;;5.45;2.53;;;16.60;99.90;;;;;;5035867;28;20514;-83
2022/10/31 12:56:46;;;;;;;6.88;2.80;;;16.60;99.90;;;;;;5035626;28;20041;-83
2022/10/31 12:59:38;;;;;;;7.18;2.80;;;16.60;99.90;;;;;;5052526;28;20033;-83
2022/10/31 13:02:30;;;;;;;6.18;2.75;;;16.60;99.90;;;;;;5052398;28;20096;-83
2022/10/31 13:05:11;;;;;;;6.95;2.92;;;16.60;99.90;;;;;;5036554;28;20037;-83
2022/10/31 13:08:04;;;;;;;6.55;2.83;;;16.60;99.90;;;;;;5039419;28;20057;-83
2022/10/31 13:11:07;;;;;;;7.07;2.78;;;16.60;99.90;;;;;;5011100;28;20120;-83
2022/10/31 13:13:45;;;;;;;6.65;2.92;;;16.60;99.90;;;;;;5041760;28;20127;-83
2022/10/31 13:16:16;;;;;;;7.05;2.80;;;16.60;99.90;;;;;;5052979;28;20033;-83
2022/10/31 13:19:00;;;;;;;8.07;2.80;;;16.70;99.90;;;;;;5052278;28;20041;-83
2022/10/31 13:21:48;;;;;;;8.52;2.53;;;17.30;99.90;;;;;;5051931;28;20044;-84